PPIZ METAR and TAF weather

Enter ICAO airport designator
Station Type Date Time Source
PPIZ METAR 2019/04/18 09:56 UTC NOAA

PPIZ 180956Z AUTO 02013KT 6SM -SN BR OVC017 M15/M17 A3009 RMK AO2 SLP192 P0000 T11501167 FZRANO


Station Type Date Time Source
PPIZ Decoded METAR 2019/04/18 09:56 UTC NOAA

Point Lay, Point Lay LRRS Airport, AK, United States (PPIZ) 69-43N 163-00W
Apr 18, 2019 - 05:56 AM EDT / 2019.04.18 0956 UTC
Wind: from the NNE (020 degrees) at 15 MPH (13 KT):0
Visibility: 6 mile(s):0
Sky conditions: overcast
Weather: light snow; mist
Precipitation last hour: A trace
Temperature: 5.0 F (-15.0 C)
Windchill: -13 F (-25 C):2
Dew Point: 1.9 F (-16.7 C)
Relative Humidity: 86%
Pressure (altimeter): 30.09 in. Hg (1018 hPa)
ob: PPIZ 180956Z AUTO 02013KT 6SM -SN BR OVC017 M15/M17 A3009 RMK AO2 SLP192 P0000 T11501167 FZRANO
cycle: 10

Station Type Date Time Source
PPIZ TAF UTC NOAA

Error!

Example: see airport list